Terminal Aerodrome Forecast
Issued by NWS Twin Cities, MN

Home | Current Version | Previous Version | Graphics & Text | Print | Product List | Glossary On
Versions: 1 2 3 4 5 6 7 8 9 10 11 12
000
FTUS43 KMPX 190520
TAFEAU
TAF
KEAU 190520Z 1906/2006 19008KT P6SM BKN200
     FM192300 22008KT P6SM BKN200
     FM200300 25004KT P6SM BKN150=

USA.gov is the U.S. government's official web portal to all federal, state and local government web resources and services.